Huvudsida
METAR-TAF:

METAR-TAF

Flygplatser :

Montevideo, Uruguay

latitud: 34-47S, longitud: 056-15W, höjd: 53 m

Aktuellt väderrapport

Denna rapport gjordes för 1 timme och 0 minuter sedan, klockan 15:00 UTC
Vind 11 kt från väst
Temperatur 10°C
Fuktighet 57%
Tryck 1017 hPa
Sikt 10 km eller mer
Inga moln under 1 500 m eller inga cumulonimbus

METAR: SUAA 071500Z 26011KT CAVOK 10/02 Q1017

Tid: 13:00 (16:00 UTC)

Väderprognos

Denna rapport gjordes för 4 timmar och 30 minuter sedan, klockan 11:30 UTC
Prognos gäller från 07 kl. 12 UTC till 08 kl. 12 UTC
Vind 15 kt från väst/sydväst
Sikt 10 km eller mer
Inga moln under 1 500 m eller inga cumulonimbus
Temporärt
från 07 kl. 12 UTC till 07 kl. 16 UTC
Vind 15 kt från väst/sydväst i byarna ända upp till 25 kt

TAF: SUAA 071130Z 0712/0812 25015KT CAVOK TX12/0718Z TN04/0810Z TEMPO 0712/0716 25015G25KT

Aktuella väderrapporter och prognoser från 4000 flygplatser (METAR- och TAF-rapporter).

De tillgängliga stationerna syns som gula och röda prickar på kartan.

För musen över prickarna för att se namnen på stationerna.

Klicka sedan för att få väderrapporter och prognoser.

För att ändra kartan: Klicka på de gröna knapparna med ett svart kors på för att zooma in; den gröna knappen med ett streck på för att zooma ut; eller på de gröna pilarna för angränsande kartor.


METAR-TAF: